sensor_id;sensor_type;location;lat;lon;timestamp;pressure;altitude;pressure_sealevel;temperature;humidity
60307;BME280;46155;52.364;6.580;2023-04-08T03:00:29;102010.41;;;2.71;100.00
60307;BME280;46155;52.364;6.580;2023-04-08T03:02:54;102064.97;;;2.96;100.00
60307;BME280;46155;52.364;6.580;2023-04-08T03:05:19;102071.28;;;2.98;100.00
60307;BME280;46155;52.364;6.580;2023-04-08T03:07:45;102057.59;;;2.92;100.00
60307;BME280;46155;52.364;6.580;2023-04-08T03:10:11;102070.56;;;2.92;100.00
60307;BME280;46155;52.364;6.580;2023-04-08T03:12:36;102070.47;;;2.83;100.00
60307;BME280;46155;52.364;6.580;2023-04-08T03:15:02;102067.31;;;2.86;100.00
60307;BME280;46155;52.364;6.580;2023-04-08T03:17:28;102075.59;;;2.90;100.00
60307;BME280;46155;52.364;6.580;2023-04-08T03:19:53;102073.00;;;2.90;100.00
60307;BME280;46155;52.364;6.580;2023-04-08T03:22:18;102080.03;;;2.91;100.00
60307;BME280;46155;52.364;6.580;2023-04-08T03:24:44;102082.06;;;2.94;100.00
60307;BME280;46155;52.364;6.580;2023-04-08T03:27:09;102085.06;;;2.90;100.00
60307;BME280;46155;52.364;6.580;2023-04-08T03:29:36;102083.22;;;2.89;100.00
60307;BME280;46155;52.364;6.580;2023-04-08T03:32:02;102085.06;;;2.90;100.00
60307;BME280;46155;52.364;6.580;2023-04-08T03:34:27;102081.38;;;2.88;100.00
60307;BME280;46155;52.364;6.580;2023-04-08T03:36:52;102079.00;;;3.05;100.00
60307;BME280;46155;52.364;6.580;2023-04-08T03:39:18;102083.53;;;3.31;100.00
60307;BME280;46155;52.364;6.580;2023-04-08T03:41:43;102086.09;;;3.70;100.00
60307;BME280;46155;52.364;6.580;2023-04-08T03:44:08;102085.91;;;3.69;100.00
60307;BME280;46155;52.364;6.580;2023-04-08T03:46:34;102084.56;;;3.56;99.70
60307;BME280;46155;52.364;6.580;2023-04-08T03:49:00;102094.97;;;3.40;99.83
60307;BME280;46155;52.364;6.580;2023-04-08T03:51:25;102090.25;;;3.29;99.61
60307;BME280;46155;52.364;6.580;2023-04-08T03:53:51;102098.69;;;3.19;99.99
60307;BME280;46155;52.364;6.580;2023-04-08T03:56:16;102091.56;;;3.09;99.99
60307;BME280;46155;52.364;6.580;2023-04-08T03:58:41;102097.41;;;3.00;99.97
60307;BME280;46155;52.364;6.580;2023-04-08T04:01:07;102089.34;;;2.89;100.00
60307;BME280;46155;52.364;6.580;2023-04-08T04:03:32;102087.22;;;2.78;100.00
60307;BME280;46155;52.364;6.580;2023-04-08T04:05:57;102094.50;;;2.66;100.00
60307;BME280;46155;52.364;6.580;2023-04-08T04:08:23;102096.59;;;2.62;100.00
60307;BME280;46155;52.364;6.580;2023-04-08T04:10:48;102075.63;;;2.44;100.00
60307;BME280;46155;52.364;6.580;2023-04-08T04:13:13;102073.66;;;2.34;100.00
60307;BME280;46155;52.364;6.580;2023-04-08T04:15:40;102103.97;;;2.43;100.00
60307;BME280;46155;52.364;6.580;2023-04-08T04:18:06;102104.75;;;2.34;100.00
60307;BME280;46155;52.364;6.580;2023-04-08T04:20:31;102104.03;;;2.28;100.00
60307;BME280;46155;52.364;6.580;2023-04-08T04:22:57;102105.88;;;2.29;100.00
60307;BME280;46155;52.364;6.580;2023-04-08T04:25:22;102109.44;;;2.22;100.00
60307;BME280;46155;52.364;6.580;2023-04-08T04:27:48;102107.63;;;2.21;100.00
60307;BME280;46155;52.364;6.580;2023-04-08T04:30:13;102117.03;;;2.21;100.00
60307;BME280;46155;52.364;6.580;2023-04-08T04:32:40;102118.53;;;2.19;100.00
60307;BME280;46155;52.364;6.580;2023-04-08T04:35:08;102113.91;;;2.16;100.00
60307;BME280;46155;52.364;6.580;2023-04-08T04:37:33;102114.28;;;2.19;100.00
60307;BME280;46155;52.364;6.580;2023-04-08T04:39:58;102117.03;;;2.21;100.00
60307;BME280;46155;52.364;6.580;2023-04-08T04:42:24;102115.22;;;2.20;100.00
60307;BME280;46155;52.364;6.580;2023-04-08T04:44:50;102117.41;;;2.24;100.00
60307;BME280;46155;52.364;6.580;2023-04-08T04:47:15;102126.66;;;2.22;100.00
60307;BME280;46155;52.364;6.580;2023-04-08T04:49:40;102131.66;;;2.20;100.00
60307;BME280;46155;52.364;6.580;2023-04-08T04:52:06;102138.16;;;2.24;100.00
60307;BME280;46155;52.364;6.580;2023-04-08T04:54:31;102142.16;;;2.29;100.00
60307;BME280;46155;52.364;6.580;2023-04-08T04:56:56;102137.16;;;2.31;100.00
60307;BME280;46155;52.364;6.580;2023-04-08T04:59:22;102134.19;;;2.35;100.00
60307;BME280;46155;52.364;6.580;2023-04-08T05:01:47;102136.91;;;2.44;100.00
60307;BME280;46155;52.364;6.580;2023-04-08T05:04:12;102137.06;;;2.52;100.00
60307;BME280;46155;52.364;6.580;2023-04-08T05:06:38;102143.50;;;2.56;100.00
60307;BME280;46155;52.364;6.580;2023-04-08T05:09:03;102141.06;;;2.57;100.00
60307;BME280;46155;52.364;6.580;2023-04-08T05:11:28;102142.13;;;2.67;100.00
60307;BME280;46155;52.364;6.580;2023-04-08T05:13:53;102145.25;;;2.71;100.00
60307;BME280;46155;52.364;6.580;2023-04-08T05:16:19;102147.31;;;2.67;100.00
60307;BME280;46155;52.364;6.580;2023-04-08T05:18:44;102142.13;;;2.67;100.00
60307;BME280;46155;52.364;6.580;2023-04-08T05:21:10;102143.38;;;2.70;100.00
60307;BME280;46155;52.364;6.580;2023-04-08T05:23:35;102154.88;;;2.72;100.00
60307;BME280;46155;52.364;6.580;2023-04-08T05:26:00;102149.13;;;2.68;100.00
60307;BME280;46155;52.364;6.580;2023-04-08T05:28:26;102144.91;;;2.68;100.00
60307;BME280;46155;52.364;6.580;2023-04-08T05:30:52;102155.22;;;2.75;100.00
60307;BME280;46155;52.364;6.580;2023-04-08T05:33:18;102152.97;;;2.79;100.00
60307;BME280;46155;52.364;6.580;2023-04-08T05:35:44;102155.91;;;2.82;100.00
60307;BME280;46155;52.364;6.580;2023-04-08T05:38:09;102158.16;;;2.79;100.00
60307;BME280;46155;52.364;6.580;2023-04-08T05:40:35;102160.56;;;2.77;100.00
60307;BME280;46155;52.364;6.580;2023-04-08T05:43:00;102156.41;;;2.86;100.00
60307;BME280;46155;52.364;6.580;2023-04-08T05:45:27;102164.16;;;2.93;100.00
60307;BME280;46155;52.364;6.580;2023-04-08T05:47:52;102167.28;;;2.98;100.00
60307;BME280;46155;52.364;6.580;2023-04-08T05:50:17;102183.28;;;2.87;100.00
60307;BME280;46155;52.364;6.580;2023-04-08T05:52:44;102179.47;;;2.76;100.00
60307;BME280;46155;52.364;6.580;2023-04-08T05:55:10;102176.69;;;2.74;100.00
60307;BME280;46155;52.364;6.580;2023-04-08T05:57:35;102181.59;;;2.87;100.00
60307;BME280;46155;52.364;6.580;2023-04-08T06:00:02;102176.53;;;2.96;100.00
60307;BME280;46155;52.364;6.580;2023-04-08T06:02:27;102186.69;;;3.02;100.00
60307;BME280;46155;52.364;6.580;2023-04-08T06:04:52;102182.84;;;2.98;100.00
60307;BME280;46155;52.364;6.580;2023-04-08T06:07:18;102191.66;;;3.07;100.00
60307;BME280;46155;52.364;6.580;2023-04-08T06:09:43;102186.41;;;3.15;100.00
60307;BME280;46155;52.364;6.580;2023-04-08T06:12:08;102190.78;;;3.23;100.00
60307;BME280;46155;52.364;6.580;2023-04-08T06:14:34;102192.22;;;3.28;100.00
60307;BME280;46155;52.364;6.580;2023-04-08T06:16:59;102197.34;;;3.35;100.00
60307;BME280;46155;52.364;6.580;2023-04-08T06:19:25;102194.75;;;3.35;100.00
60307;BME280;46155;52.364;6.580;2023-04-08T06:21:50;102191.41;;;3.36;100.00
60307;BME280;46155;52.364;6.580;2023-04-08T06:24:16;102188.75;;;3.43;100.00
60307;BME280;46155;52.364;6.580;2023-04-08T06:26:41;102196.88;;;3.47;100.00
60307;BME280;46155;52.364;6.580;2023-04-08T06:29:06;102201.03;;;3.60;100.00
60307;BME280;46155;52.364;6.580;2023-04-08T06:31:32;102210.69;;;3.77;100.00
60307;BME280;46155;52.364;6.580;2023-04-08T06:33:57;102207.41;;;3.87;100.00
60307;BME280;46155;52.364;6.580;2023-04-08T06:36:23;102216.03;;;3.95;100.00
60307;BME280;46155;52.364;6.580;2023-04-08T06:38:48;102215.22;;;4.03;100.00
60307;BME280;46155;52.364;6.580;2023-04-08T06:41:13;102214.63;;;4.22;100.00
60307;BME280;46155;52.364;6.580;2023-04-08T06:43:38;102228.34;;;4.21;100.00
60307;BME280;46155;52.364;6.580;2023-04-08T06:46:04;102231.03;;;4.29;100.00
60307;BME280;46155;52.364;6.580;2023-04-08T06:48:30;102227.75;;;4.39;100.00
60307;BME280;46155;52.364;6.580;2023-04-08T06:50:56;102230.25;;;4.46;100.00
60307;BME280;46155;52.364;6.580;2023-04-08T06:53:25;102232.28;;;4.65;100.00
60307;BME280;46155;52.364;6.580;2023-04-08T06:55:51;102224.19;;;4.71;100.00
60307;BME280;46155;52.364;6.580;2023-04-08T06:58:16;102227.13;;;4.58;100.00
60307;BME280;46155;52.364;6.580;2023-04-08T07:00:42;102236.53;;;4.64;100.00
60307;BME280;46155;52.364;6.580;2023-04-08T07:03:08;102233.56;;;4.77;100.00
60307;BME280;46155;52.364;6.580;2023-04-08T07:05:34;102238.19;;;4.80;100.00
60307;BME280;46155;52.364;6.580;2023-04-08T07:08:00;102238.22;;;4.89;100.00
60307;BME280;46155;52.364;6.580;2023-04-08T07:10:26;102248.97;;;4.92;100.00
60307;BME280;46155;52.364;6.580;2023-04-08T07:12:52;102246.81;;;4.88;100.00
60307;BME280;46155;52.364;6.580;2023-04-08T07:15:18;102252.78;;;4.87;100.00
60307;BME280;46155;52.364;6.580;2023-04-08T07:17:43;102252.03;;;4.88;100.00
60307;BME280;46155;52.364;6.580;2023-04-08T07:20:08;102255.84;;;4.91;100.00
60307;BME280;46155;52.364;6.580;2023-04-08T07:22:34;102249.59;;;4.89;100.00
60307;BME280;46155;52.364;6.580;2023-04-08T07:25:00;102252.94;;;4.88;100.00
60307;BME280;46155;52.364;6.580;2023-04-08T07:27:25;102260.38;;;5.01;100.00
60307;BME280;46155;52.364;6.580;2023-04-08T07:29:53;102260.03;;;4.98;100.00
60307;BME280;46155;52.364;6.580;2023-04-08T07:32:19;102262.53;;;5.05;100.00
60307;BME280;46155;52.364;6.580;2023-04-08T07:34:45;102271.09;;;5.04;100.00
60307;BME280;46155;52.364;6.580;2023-04-08T07:37:10;102256.16;;;5.10;100.00
60307;BME280;46155;52.364;6.580;2023-04-08T07:39:35;102266.66;;;5.28;100.00
60307;BME280;46155;52.364;6.580;2023-04-08T07:42:01;102268.50;;;5.29;100.00
60307;BME280;46155;52.364;6.580;2023-04-08T07:44:26;102259.47;;;5.34;100.00
60307;BME280;46155;52.364;6.580;2023-04-08T07:46:51;102267.47;;;5.44;100.00
60307;BME280;46155;52.364;6.580;2023-04-08T07:49:16;102268.59;;;5.46;100.00
60307;BME280;46155;52.364;6.580;2023-04-08T07:51:42;102270.09;;;5.44;100.00
60307;BME280;46155;52.364;6.580;2023-04-08T07:54:07;102282.34;;;5.45;100.00
60307;BME280;46155;52.364;6.580;2023-04-08T07:56:34;102278.41;;;5.49;100.00
60307;BME280;46155;52.364;6.580;2023-04-08T07:59:00;102279.66;;;5.61;100.00
60307;BME280;46155;52.364;6.580;2023-04-08T08:01:25;102269.31;;;5.70;100.00
60307;BME280;46155;52.364;6.580;2023-04-08T08:03:53;102276.41;;;5.80;100.00
60307;BME280;46155;52.364;6.580;2023-04-08T08:06:19;102285.97;;;5.97;100.00
60307;BME280;46155;52.364;6.580;2023-04-08T08:08:44;102282.63;;;6.07;100.00
60307;BME280;46155;52.364;6.580;2023-04-08T08:11:10;102277.41;;;6.07;100.00
60307;BME280;46155;52.364;6.580;2023-04-08T08:13:35;102281.13;;;6.17;100.00
60307;BME280;46155;52.364;6.580;2023-04-08T08:16:01;102274.69;;;6.23;100.00
60307;BME280;46155;52.364;6.580;2023-04-08T08:18:26;102275.94;;;6.52;100.00
60307;BME280;46155;52.364;6.580;2023-04-08T08:20:51;102285.00;;;6.91;100.00
60307;BME280;46155;52.364;6.580;2023-04-08T08:23:16;102276.03;;;7.15;100.00
60307;BME280;46155;52.364;6.580;2023-04-08T08:25:42;102282.00;;;7.32;100.00
60307;BME280;46155;52.364;6.580;2023-04-08T08:28:07;102286.44;;;7.33;100.00
60307;BME280;46155;52.364;6.580;2023-04-08T08:30:32;102288.16;;;7.23;100.00
60307;BME280;46155;52.364;6.580;2023-04-08T08:32:58;102281.59;;;7.10;100.00
60307;BME280;46155;52.364;6.580;2023-04-08T08:35:24;102283.59;;;7.03;100.00
60307;BME280;46155;52.364;6.580;2023-04-08T08:37:50;102281.44;;;7.08;100.00
60307;BME280;46155;52.364;6.580;2023-04-08T08:40:15;102282.94;;;7.23;100.00
60307;BME280;46155;52.364;6.580;2023-04-08T08:42:41;102292.75;;;7.35;100.00
60307;BME280;46155;52.364;6.580;2023-04-08T08:45:14;102299.72;;;7.62;100.00
60307;BME280;46155;52.364;6.580;2023-04-08T08:47:40;102302.91;;;7.77;100.00
60307;BME280;46155;52.364;6.580;2023-04-08T08:50:05;102303.78;;;8.14;100.00
60307;BME280;46155;52.364;6.580;2023-04-08T08:52:31;102298.91;;;8.08;100.00
60307;BME280;46155;52.364;6.580;2023-04-08T08:54:57;102297.81;;;7.79;100.00
60307;BME280;46155;52.364;6.580;2023-04-08T08:57:23;102301.75;;;8.48;100.00
60307;BME280;46155;52.364;6.580;2023-04-08T08:59:48;102291.84;;;9.51;100.00
60307;BME280;46155;52.364;6.580;2023-04-08T09:02:24;102302.00;;;8.79;98.53
60307;BME280;46155;52.364;6.580;2023-04-08T09:04:58;102303.19;;;8.08;100.00
60307;BME280;46155;52.364;6.580;2023-04-08T09:07:25;102307.56;;;7.99;100.00
60307;BME280;46155;52.364;6.580;2023-04-08T09:09:51;102313.09;;;8.02;100.00
60307;BME280;46155;52.364;6.580;2023-04-08T09:12:17;102310.75;;;8.33;100.00
60307;BME280;46155;52.364;6.580;2023-04-08T09:14:42;102309.19;;;8.35;100.00
60307;BME280;46155;52.364;6.580;2023-04-08T09:17:08;102307.25;;;8.23;100.00
60307;BME280;46155;52.364;6.580;2023-04-08T09:19:33;102311.59;;;8.42;100.00
60307;BME280;46155;52.364;6.580;2023-04-08T09:22:09;102304.03;;;8.73;100.00
60307;BME280;46155;52.364;6.580;2023-04-08T09:24:36;102309.75;;;8.88;100.00
60307;BME280;46155;52.364;6.580;2023-04-08T09:27:05;102299.41;;;9.38;100.00
60307;BME280;46155;52.364;6.580;2023-04-08T09:29:30;102308.84;;;9.36;98.38
60307;BME280;46155;52.364;6.580;2023-04-08T09:31:57;102321.00;;;9.06;95.44
60307;BME280;46155;52.364;6.580;2023-04-08T09:34:24;102322.22;;;8.71;96.42
60307;BME280;46155;52.364;6.580;2023-04-08T09:36:51;102320.56;;;8.63;97.00
60307;BME280;46155;52.364;6.580;2023-04-08T09:39:17;102326.84;;;8.46;97.22
60307;BME280;46155;52.364;6.580;2023-04-08T09:41:43;102323.06;;;8.34;96.15
60307;BME280;46155;52.364;6.580;2023-04-08T09:44:10;102333.44;;;8.51;97.28
60307;BME280;46155;52.364;6.580;2023-04-08T09:49:17;102329.25;;;8.53;97.71
60307;BME280;46155;52.364;6.580;2023-04-08T09:51:56;102327.88;;;8.57;98.26
60307;BME280;46155;52.364;6.580;2023-04-08T09:54:30;102337.28;;;8.55;94.63
60307;BME280;46155;52.364;6.580;2023-04-08T09:57:08;102332.19;;;8.56;95.46
60307;BME280;46155;52.364;6.580;2023-04-08T09:59:35;102329.84;;;8.59;95.31
60307;BME280;46155;52.364;6.580;2023-04-08T10:02:06;102322.84;;;8.69;97.65
60307;BME280;46155;52.364;6.580;2023-04-08T10:04:35;102329.56;;;8.75;95.08
60307;BME280;46155;52.364;6.580;2023-04-08T10:07:05;102323.63;;;8.87;94.77
60307;BME280;46155;52.364;6.580;2023-04-08T10:09:31;102311.09;;;8.74;93.77
60307;BME280;46155;52.364;6.580;2023-04-08T10:11:57;102304.28;;;8.76;95.72
60307;BME280;46155;52.364;6.580;2023-04-08T10:14:23;102312.53;;;8.89;95.04
60307;BME280;46155;52.364;6.580;2023-04-08T10:17:25;102319.84;;;9.12;96.26
60307;BME280;46155;52.364;6.580;2023-04-08T10:19:51;102312.69;;;9.20;94.16
60307;BME280;46155;52.364;6.580;2023-04-08T10:22:46;102313.72;;;9.41;94.57
60307;BME280;46155;52.364;6.580;2023-04-08T10:27:41;102317.03;;;9.59;91.64
60307;BME280;46155;52.364;6.580;2023-04-08T10:32:51;102321.53;;;9.71;89.74
60307;BME280;46155;52.364;6.580;2023-04-08T10:35:17;102314.50;;;9.40;89.68
60307;BME280;46155;52.364;6.580;2023-04-08T10:37:52;102327.50;;;9.49;91.29
60307;BME280;46155;52.364;6.580;2023-04-08T10:40:18;102322.28;;;9.59;92.40
60307;BME280;46155;52.364;6.580;2023-04-08T10:42:44;102322.53;;;9.62;93.60
60307;BME280;46155;52.364;6.580;2023-04-08T10:45:09;102302.66;;;9.75;94.36
60307;BME280;46155;52.364;6.580;2023-04-08T10:47:35;102314.13;;;9.96;92.41
60307;BME280;46155;52.364;6.580;2023-04-08T10:50:11;102311.03;;;9.71;90.49
60307;BME280;46155;52.364;6.580;2023-04-08T10:52:48;102310.53;;;9.75;93.70
60307;BME280;46155;52.364;6.580;2023-04-08T10:55:14;102313.78;;;9.62;92.23
60307;BME280;46155;52.364;6.580;2023-04-08T10:57:40;102324.63;;;9.56;93.02
60307;BME280;46155;52.364;6.580;2023-04-08T11:00:10;102314.16;;;9.56;94.00
60307;BME280;46155;52.364;6.580;2023-04-08T11:02:38;102320.38;;;9.38;92.69
60307;BME280;46155;52.364;6.580;2023-04-08T11:05:04;102320.28;;;9.17;94.35
60307;BME280;46155;52.364;6.580;2023-04-08T11:07:29;102324.72;;;9.18;94.77
60307;BME280;46155;52.364;6.580;2023-04-08T11:09:55;102326.06;;;9.23;95.31
60307;BME280;46155;52.364;6.580;2023-04-08T11:12:21;102321.72;;;9.43;93.53
60307;BME280;46155;52.364;6.580;2023-04-08T11:14:46;102316.56;;;9.74;93.37
60307;BME280;46155;52.364;6.580;2023-04-08T11:17:16;102315.78;;;9.75;89.29
60307;BME280;46155;52.364;6.580;2023-04-08T11:19:41;102313.47;;;9.98;91.00
60307;BME280;46155;52.364;6.580;2023-04-08T11:22:07;102321.34;;;10.09;91.47
60307;BME280;46155;52.364;6.580;2023-04-08T11:24:35;102310.41;;;9.73;90.85
60307;BME280;46155;52.364;6.580;2023-04-08T11:27:03;102309.00;;;9.87;92.51
60307;BME280;46155;52.364;6.580;2023-04-08T11:29:30;102308.22;;;10.09;92.47
60307;BME280;46155;52.364;6.580;2023-04-08T11:31:56;102305.59;;;10.19;91.56
60307;BME280;46155;52.364;6.580;2023-04-08T11:34:23;102297.75;;;10.09;91.27
60307;BME280;46155;52.364;6.580;2023-04-08T11:36:49;102307.84;;;10.25;91.28
60307;BME280;46155;52.364;6.580;2023-04-08T11:39:15;102307.78;;;10.44;91.02
60307;BME280;46155;52.364;6.580;2023-04-08T11:41:41;102310.66;;;10.67;90.55
60307;BME280;46155;52.364;6.580;2023-04-08T11:44:06;102311.66;;;10.80;89.26
60307;BME280;46155;52.364;6.580;2023-04-08T11:46:32;102309.72;;;10.67;89.14
60307;BME280;46155;52.364;6.580;2023-04-08T11:49:04;102310.25;;;10.53;92.45
60307;BME280;46155;52.364;6.580;2023-04-08T11:51:30;102319.03;;;10.53;91.88
60307;BME280;46155;52.364;6.580;2023-04-08T11:53:56;102310.66;;;10.47;91.61
60307;BME280;46155;52.364;6.580;2023-04-08T11:56:22;102316.31;;;10.62;92.68
60307;BME280;46155;52.364;6.580;2023-04-08T11:58:48;102330.19;;;10.71;89.41
60307;BME280;46155;52.364;6.580;2023-04-08T12:01:14;102320.63;;;10.61;91.36
60307;BME280;46155;52.364;6.580;2023-04-08T12:04:01;102320.78;;;11.06;91.73
60307;BME280;46155;52.364;6.580;2023-04-08T12:06:27;102318.16;;;11.16;88.28
60307;BME280;46155;52.364;6.580;2023-04-08T12:08:54;102313.97;;;11.08;89.56
60307;BME280;46155;52.364;6.580;2023-04-08T12:11:20;102317.44;;;10.86;88.65
60307;BME280;46155;52.364;6.580;2023-04-08T12:13:46;102311.25;;;10.85;90.27
60307;BME280;46155;52.364;6.580;2023-04-08T12:16:11;102316.41;;;10.74;89.54
60307;BME280;46155;52.364;6.580;2023-04-08T12:18:37;102315.09;;;10.79;92.49
60307;BME280;46155;52.364;6.580;2023-04-08T12:21:02;102313.88;;;10.96;91.44
60307;BME280;46155;52.364;6.580;2023-04-08T12:23:27;102320.56;;;10.92;89.02
60307;BME280;46155;52.364;6.580;2023-04-08T12:25:53;102318.72;;;11.01;90.43
60307;BME280;46155;52.364;6.580;2023-04-08T12:28:18;102318.72;;;10.91;89.92
60307;BME280;46155;52.364;6.580;2023-04-08T12:30:43;102312.88;;;10.73;91.08
60307;BME280;46155;52.364;6.580;2023-04-08T12:33:08;102319.94;;;10.74;91.01
60307;BME280;46155;52.364;6.580;2023-04-08T12:35:34;102312.47;;;10.58;89.57
60307;BME280;46155;52.364;6.580;2023-04-08T12:37:59;102317.72;;;10.79;91.46
60307;BME280;46155;52.364;6.580;2023-04-08T12:40:25;102314.97;;;10.67;91.79
60307;BME280;46155;52.364;6.580;2023-04-08T12:42:50;102317.59;;;10.57;91.62
60307;BME280;46155;52.364;6.580;2023-04-08T12:45:16;102315.88;;;10.57;93.86
60307;BME280;46155;52.364;6.580;2023-04-08T12:47:41;102314.97;;;10.67;93.52
60307;BME280;46155;52.364;6.580;2023-04-08T12:50:07;102314.44;;;10.71;94.35
60307;BME280;46155;52.364;6.580;2023-04-08T12:52:33;102310.75;;;10.79;94.45
60307;BME280;46155;52.364;6.580;2023-04-08T12:54:59;102313.19;;;10.98;94.49
60307;BME280;46155;52.364;6.580;2023-04-08T12:57:25;102309.75;;;11.10;92.89
60307;BME280;46155;52.364;6.580;2023-04-08T12:59:51;102305.56;;;11.12;91.15
60307;BME280;46155;52.364;6.580;2023-04-08T13:02:16;102304.28;;;10.96;92.13
60307;BME280;46155;52.364;6.580;2023-04-08T13:04:42;102318.47;;;10.88;92.30
60307;BME280;46155;52.364;6.580;2023-04-08T13:07:07;102322.94;;;10.89;93.97
60307;BME280;46155;52.364;6.580;2023-04-08T13:09:32;102315.09;;;10.79;93.58
60307;BME280;46155;52.364;6.580;2023-04-08T13:11:57;102322.16;;;10.80;93.41
60307;BME280;46155;52.364;6.580;2023-04-08T13:14:24;102317.97;;;10.82;94.48
60307;BME280;46155;52.364;6.580;2023-04-08T13:16:49;102322.41;;;10.83;93.25
60307;BME280;46155;52.364;6.580;2023-04-08T13:19:14;102320.78;;;11.06;93.03
60307;BME280;46155;52.364;6.580;2023-04-08T13:21:40;102311.09;;;10.94;91.43
60307;BME280;46155;52.364;6.580;2023-04-08T13:24:05;102311.41;;;10.77;91.02
60307;BME280;46155;52.364;6.580;2023-04-08T13:26:31;102318.09;;;10.83;92.64
60307;BME280;46155;52.364;6.580;2023-04-08T13:28:56;102311.09;;;10.94;92.35
60307;BME280;46155;52.364;6.580;2023-04-08T13:31:22;102314.72;;;11.17;92.72
60307;BME280;46155;52.364;6.580;2023-04-08T13:33:47;102311.06;;;11.15;90.26
60307;BME280;46155;52.364;6.580;2023-04-08T13:36:12;102303.91;;;11.34;92.45
60307;BME280;46155;52.364;6.580;2023-04-08T13:38:37;102299.22;;;11.52;91.43
60307;BME280;46155;52.364;6.580;2023-04-08T13:41:03;102308.25;;;11.24;93.46
60307;BME280;46155;52.364;6.580;2023-04-08T13:43:28;102305.44;;;11.00;94.46
60307;BME280;46155;52.364;6.580;2023-04-08T13:45:53;102302.44;;;10.95;96.09
60307;BME280;46155;52.364;6.580;2023-04-08T13:48:19;102307.34;;;10.80;95.77
60307;BME280;46155;52.364;6.580;2023-04-08T13:50:44;102306.00;;;10.85;97.94
60307;BME280;46155;52.364;6.580;2023-04-08T13:53:10;102307.06;;;10.88;97.84
60307;BME280;46155;52.364;6.580;2023-04-08T13:55:36;102305.41;;;10.67;97.53
60307;BME280;46155;52.364;6.580;2023-04-08T13:58:01;102305.94;;;10.63;98.54
60307;BME280;46155;52.364;6.580;2023-04-08T14:00:26;102298.53;;;10.70;98.38
60307;BME280;46155;52.364;6.580;2023-04-08T14:02:52;102309.28;;;10.83;97.81
60307;BME280;46155;52.364;6.580;2023-04-08T14:05:17;102305.78;;;10.72;96.72
60307;BME280;46155;52.364;6.580;2023-04-08T14:07:43;102310.66;;;10.67;97.08
60307;BME280;46155;52.364;6.580;2023-04-08T14:10:08;102303.94;;;10.61;96.56
60307;BME280;46155;52.364;6.580;2023-04-08T14:12:34;102310.25;;;10.73;97.18
60307;BME280;46155;52.364;6.580;2023-04-08T14:14:59;102312.19;;;10.86;97.66
60307;BME280;46155;52.364;6.580;2023-04-08T14:17:24;102313.47;;;10.91;97.17
60307;BME280;46155;52.364;6.580;2023-04-08T14:19:50;102312.56;;;10.91;96.47
60307;BME280;46155;52.364;6.580;2023-04-08T14:22:15;102306.94;;;10.86;96.42
60307;BME280;46155;52.364;6.580;2023-04-08T14:24:42;102303.25;;;10.84;96.73
60307;BME280;46155;52.364;6.580;2023-04-08T14:27:07;102302.59;;;10.66;96.31
60307;BME280;46155;52.364;6.580;2023-04-08T14:29:33;102306.19;;;10.66;97.54
60307;BME280;46155;52.364;6.580;2023-04-08T14:31:58;102305.09;;;10.85;97.58
60307;BME280;46155;52.364;6.580;2023-04-08T14:34:24;102310.84;;;10.91;96.53
60307;BME280;46155;52.364;6.580;2023-04-08T14:36:49;102302.97;;;10.91;96.66
60307;BME280;46155;52.364;6.580;2023-04-08T14:39:14;102305.75;;;10.82;96.60
60307;BME280;46155;52.364;6.580;2023-04-08T14:41:40;102307.72;;;10.85;96.88
60307;BME280;46155;52.364;6.580;2023-04-08T14:44:05;102298.25;;;10.97;96.42
60307;BME280;46155;52.364;6.580;2023-04-08T14:46:30;102294.00;;;10.99;96.27
60307;BME280;46155;52.364;6.580;2023-04-08T14:48:56;102305.75;;;10.82;95.95
60307;BME280;46155;52.364;6.580;2023-04-08T14:51:23;102289.31;;;10.85;97.29
60307;BME280;46155;52.364;6.580;2023-04-08T14:53:48;102306.66;;;10.83;96.82
60307;BME280;46155;52.364;6.580;2023-04-08T14:56:13;102304.84;;;10.72;97.33
60307;BME280;46155;52.364;6.580;2023-04-08T14:58:38;102294.13;;;10.48;97.84
60307;BME280;46155;52.364;6.580;2023-04-08T15:01:04;102293.72;;;10.43;100.00
60307;BME280;46155;52.364;6.580;2023-04-08T15:03:29;102297.00;;;10.41;99.75
60307;BME280;46155;52.364;6.580;2023-04-08T15:05:55;102298.28;;;10.25;100.00
60307;BME280;46155;52.364;6.580;2023-04-08T15:08:20;102300.13;;;10.26;100.00
60307;BME280;46155;52.364;6.580;2023-04-08T15:10:46;102298.03;;;10.22;100.00
60307;BME280;46155;52.364;6.580;2023-04-08T15:13:11;102305.47;;;10.17;100.00
60307;BME280;46155;52.364;6.580;2023-04-08T15:15:36;102298.53;;;10.28;100.00
60307;BME280;46155;52.364;6.580;2023-04-08T15:18:02;102297.75;;;10.19;100.00
60307;BME280;46155;52.364;6.580;2023-04-08T15:20:27;102306.00;;;10.03;100.00
60307;BME280;46155;52.364;6.580;2023-04-08T15:22:52;102299.06;;;10.14;100.00
60307;BME280;46155;52.364;6.580;2023-04-08T15:25:18;102302.34;;;10.11;100.00
60307;BME280;46155;52.364;6.580;2023-04-08T15:27:43;102296.69;;;10.07;100.00
60307;BME280;46155;52.364;6.580;2023-04-08T15:30:09;102288.31;;;10.11;100.00
60307;BME280;46155;52.364;6.580;2023-04-08T15:32:34;102299.59;;;9.99;100.00
60307;BME280;46155;52.364;6.580;2023-04-08T15:35:00;102309.66;;;9.95;100.00
60307;BME280;46155;52.364;6.580;2023-04-08T15:37:26;102300.06;;;9.85;100.00
60307;BME280;46155;52.364;6.580;2023-04-08T15:39:51;102292.72;;;9.81;100.00
60307;BME280;46155;52.364;6.580;2023-04-08T15:42:20;102292.16;;;9.75;100.00
60307;BME280;46155;52.364;6.580;2023-04-08T15:44:46;102291.41;;;9.76;100.00
60307;BME280;46155;52.364;6.580;2023-04-08T15:47:11;102293.91;;;9.85;100.00
60307;BME280;46155;52.364;6.580;2023-04-08T15:49:37;102291.66;;;9.89;100.00
60307;BME280;46155;52.364;6.580;2023-04-08T15:52:03;102289.34;;;9.92;100.00